This is the latest recevied weather packets stored in our database for station/object N7CEE. If no packets are shown the sender has not sent any weather packets the latest 10 day(s).
| Time | Temp. | Humidity | Pressure | Rain* | Wind** | Luminosity | Snow |
|---|---|---|---|---|---|---|---|
| 1777871044 | 11.67° C | 38% | 1021.9 hPa | 0 mm | - | 0 W/m² | - |
| 1777870741 | 11.67° C | 38% | 1021.6 hPa | 0 mm | - | 0 W/m² | - |
| 1777870436 | 11.67° C | 38% | 1021.6 hPa | 0 mm | - | 0 W/m² | - |
| 1777870133 | 11.67° C | 38% | 1021.8 hPa | 0 mm | - | 0 W/m² | - |
| 1777869830 | 11.67° C | 38% | 1021.5 hPa | 0 mm | - | 0 W/m² | - |
| 1777869528 | 12.22° C | 37% | 1021.5 hPa | 0 mm | - | 0 W/m² | - |
| 1777869224 | 12.22° C | 37% | 1021.5 hPa | 0 mm | - | 0 W/m² | - |
| 1777868922 | 12.22° C | 36% | 1021.6 hPa | 0 mm | - | 0 W/m² | - |
| 1777868618 | 12.22° C | 36% | 1021.4 hPa | 0 mm | - | 0 W/m² | - |
| 1777868314 | 12.22° C | 38% | 1021.5 hPa | 0 mm | - | 0 W/m² | - |
| 1777868011 | 12.22° C | 39% | 1021.6 hPa | 0 mm | - | 0 W/m² | - |
| 1777867707 | 12.22° C | 38% | 1021.4 hPa | 0 mm | - | 0 W/m² | - |
| 1777867405 | 12.78° C | 37% | 1021.4 hPa | 0 mm | - | 0 W/m² | - |
| 1777867100 | 12.78° C | 37% | 1021.4 hPa | 0 mm | - | 0 W/m² | - |
| 1777866798 | 12.78° C | 36% | 1021.3 hPa | 0 mm | - | 0 W/m² | - |
| 1777866193 | 13.33° C | 36% | 1021.4 hPa | 0 mm | - | 0 W/m² | - |
| 1777865284 | 13.89° C | 36% | 1021.3 hPa | 0 mm | - | 0 W/m² | - |
| 1777864981 | 13.89° C | 36% | 1021.4 hPa | 0 mm | - | 0 W/m² | - |
| 1777864071 | 13.89° C | 36% | 1021.3 hPa | 0 mm | - | 0 W/m² | - |
| 1777846795 | 20° C | 29% | 1021.8 hPa | 0 mm | - | 701 W/m² | - |
| 1777844372 | 20.56° C | 30% | 1022.1 hPa | 0 mm | - | 89 W/m² | - |
| 1777844070 | 20° C | 29% | 1022.1 hPa | 0 mm | - | 763 W/m² | - |
| 1777843766 | 20° C | 31% | 1022.4 hPa | 0 mm | - | 757 W/m² | - |
| 1777843464 | 20° C | 30% | 1022.4 hPa | 0 mm | - | 399 W/m² | - |
| 1777841945 | 20.56° C | 29% | 1022.8 hPa | 0 mm | - | 826 W/m² | - |
* Rain latest hour (hover to see other rain measurements)
** Current wind speed in m/s (hover to see current wind gust speed)